createdAt,value
2023-05-15T00:00:16.667Z,5.78
2023-05-15T00:02:45.265Z,5.55
2023-05-15T00:05:13.195Z,5.78
2023-05-15T00:07:40.739Z,5.72
2023-05-15T00:10:08.685Z,5.57
2023-05-15T00:12:35.327Z,5.63
2023-05-15T00:15:01.939Z,5.80
2023-05-15T00:17:28.737Z,6.07
2023-05-15T00:19:57.700Z,5.88
2023-05-15T00:22:24.367Z,5.68
2023-05-15T00:24:51.270Z,5.68
2023-05-15T00:27:18.010Z,5.78
2023-05-15T00:29:44.567Z,6.40
2023-05-15T00:32:11.066Z,5.68
2023-05-15T00:34:37.597Z,5.70
2023-05-15T00:37:04.191Z,5.93
2023-05-15T00:39:30.891Z,5.97
2023-05-15T00:42:01.925Z,5.97
2023-05-15T00:44:31.346Z,5.93
2023-05-15T00:46:59.547Z,6.07
2023-05-15T00:49:29.463Z,5.65
2023-05-15T00:52:02.083Z,5.80
2023-05-15T00:54:28.657Z,5.88
2023-05-15T00:56:59.773Z,5.63
2023-05-15T00:59:28.506Z,5.53
2023-05-15T01:01:55.808Z,5.53
2023-05-15T01:04:22.919Z,5.47
2023-05-15T01:06:50.061Z,6.30
2023-05-15T01:09:17.831Z,5.50
2023-05-15T01:11:46.804Z,5.78
2023-05-15T01:14:13.352Z,5.82
2023-05-15T01:16:41.485Z,5.32
2023-05-15T01:19:08.155Z,6.00
2023-05-15T01:21:34.867Z,5.68
2023-05-15T01:24:46.262Z,5.13
2023-05-15T01:27:40.022Z,5.72
2023-05-15T01:30:27.282Z,5.57
2023-05-15T01:33:04.489Z,5.53
2023-05-15T01:35:34.111Z,5.60
2023-05-15T01:38:15.908Z,6.10
2023-05-15T01:40:45.737Z,5.38
2023-05-15T01:43:18.412Z,5.70
2023-05-15T01:45:44.949Z,6.20
2023-05-15T01:48:14.315Z,6.38
2023-05-15T01:50:43.355Z,6.07
2023-05-15T01:53:11.773Z,5.35
2023-05-15T01:55:40.051Z,6.05
2023-05-15T01:58:07.142Z,5.78
2023-05-15T02:00:36.188Z,6.07
2023-05-15T02:03:07.434Z,6.10
2023-05-15T02:05:35.189Z,5.72
2023-05-15T02:08:04.384Z,5.25
2023-05-15T02:10:33.033Z,6.00
2023-05-15T02:13:00.636Z,6.07
2023-05-15T02:15:29.638Z,6.68
2023-05-15T02:17:56.292Z,5.95
2023-05-15T02:20:22.919Z,5.78
2023-05-15T02:22:49.685Z,5.68
2023-05-15T02:25:16.262Z,5.60
2023-05-15T02:27:58.584Z,5.55
2023-05-15T02:30:46.355Z,6.20
2023-05-15T02:33:28.445Z,6.07
2023-05-15T02:36:10.765Z,5.72
2023-05-15T02:38:46.771Z,6.70
2023-05-15T02:41:14.917Z,6.43
2023-05-15T02:43:42.567Z,6.25
2023-05-15T02:46:09.302Z,6.88
2023-05-15T02:48:41.846Z,6.20
2023-05-15T02:51:09.245Z,6.20
2023-05-15T02:53:42.329Z,7.25
2023-05-15T02:56:09.310Z,6.25
2023-05-15T02:58:36.951Z,6.18
2023-05-15T03:01:04.528Z,5.95
2023-05-15T03:03:31.267Z,6.85
2023-05-15T03:05:57.781Z,6.07
2023-05-15T03:08:24.327Z,5.70
2023-05-15T03:10:50.840Z,5.80
2023-05-15T03:13:17.338Z,5.90
2023-05-15T03:15:45.578Z,5.53
2023-05-15T03:18:12.350Z,6.03
2023-05-15T03:20:39.021Z,6.03
2023-05-15T03:23:05.601Z,7.30
2023-05-15T03:25:32.127Z,6.72
2023-05-15T03:27:58.742Z,7.00
2023-05-15T03:30:27.278Z,7.22
2023-05-15T03:32:54.499Z,6.80
2023-05-15T03:35:21.140Z,6.63
2023-05-15T03:37:47.674Z,7.15
2023-05-15T03:40:14.364Z,7.28
2023-05-15T03:42:40.846Z,7.00
2023-05-15T03:45:08.221Z,8.30
2023-05-15T03:47:35.100Z,7.57
2023-05-15T03:50:01.755Z,8.13
2023-05-15T03:52:28.428Z,7.28
2023-05-15T03:54:55.320Z,6.80
2023-05-15T03:57:21.834Z,6.95
2023-05-15T03:59:48.334Z,7.65
2023-05-15T04:02:15.040Z,6.90
2023-05-15T04:04:41.659Z,6.90
2023-05-15T04:07:08.195Z,7.32
2023-05-15T04:09:34.686Z,6.97
2023-05-15T04:12:01.220Z,6.80
2023-05-15T04:14:28.212Z,6.82
2023-05-15T04:16:54.792Z,7.00
2023-05-15T04:19:21.510Z,7.38
2023-05-15T04:21:48.176Z,6.90
2023-05-15T04:24:14.728Z,6.95
2023-05-15T04:26:42.173Z,6.50
2023-05-15T04:29:09.466Z,6.38
2023-05-15T04:31:36.329Z,6.95
2023-05-15T04:34:04.578Z,6.72
2023-05-15T04:36:33.922Z,6.97
2023-05-15T04:39:00.844Z,6.85
2023-05-15T04:41:27.549Z,6.72
2023-05-15T04:43:54.151Z,7.13
2023-05-15T04:46:20.801Z,7.22
2023-05-15T04:48:47.338Z,7.20
2023-05-15T04:51:13.877Z,7.05
2023-05-15T04:53:40.363Z,7.40
2023-05-15T04:56:07.180Z,7.63
2023-05-15T04:58:33.840Z,7.13
2023-05-15T05:01:03.534Z,7.55
2023-05-15T05:03:30.626Z,7.13
2023-05-15T05:05:57.098Z,7.60
2023-05-15T05:08:23.662Z,7.30
2023-05-15T05:10:56.336Z,7.10
2023-05-15T05:13:23.196Z,7.70
2023-05-15T05:15:51.142Z,7.63
2023-05-15T05:18:17.789Z,7.57
2023-05-15T05:20:44.348Z,8.75
2023-05-15T05:23:10.950Z,7.93
2023-05-15T05:25:37.491Z,7.40
2023-05-15T05:28:04.124Z,8.20
2023-05-15T05:30:30.626Z,8.35
2023-05-15T05:32:57.257Z,8.18
2023-05-15T05:35:23.958Z,7.35
2023-05-15T05:37:50.606Z,7.93
2023-05-15T05:40:17.719Z,7.13
2023-05-15T05:42:45.777Z,9.15
2023-05-15T05:45:12.393Z,9.38
2023-05-15T05:47:38.937Z,8.20
2023-05-15T05:50:06.672Z,8.35
2023-05-15T05:52:33.201Z,8.05
2023-05-15T05:54:59.795Z,8.00
2023-05-15T05:57:26.469Z,8.05
2023-05-15T05:59:53.087Z,7.68
2023-05-15T06:02:19.765Z,8.88
2023-05-15T06:04:46.440Z,7.78
2023-05-15T06:07:13.057Z,7.85
2023-05-15T06:09:39.561Z,7.40
2023-05-15T06:12:08.082Z,9.68
2023-05-15T06:14:34.992Z,8.93
2023-05-15T06:17:01.638Z,8.07
2023-05-15T06:19:29.300Z,7.10
2023-05-15T06:21:56.590Z,7.75
2023-05-15T06:24:23.176Z,7.60
2023-05-15T06:26:50.635Z,7.30
2023-05-15T06:29:18.870Z,6.85
2023-05-15T06:31:45.577Z,6.15
2023-05-15T06:34:12.097Z,6.57
2023-05-15T06:36:38.697Z,6.97
2023-05-15T06:39:05.517Z,6.28
2023-05-15T06:41:32.991Z,5.70
2023-05-15T06:43:59.663Z,6.00
2023-05-15T06:46:26.326Z,6.03
2023-05-15T06:48:55.168Z,5.53
2023-05-15T06:51:21.990Z,5.50
2023-05-15T06:53:48.512Z,5.82
2023-05-15T06:56:15.230Z,5.95
2023-05-15T06:58:41.704Z,5.63
2023-05-15T07:01:09.564Z,5.63
2023-05-15T07:03:36.114Z,5.35
2023-05-15T07:06:02.736Z,5.47
2023-05-15T07:08:29.346Z,5.45
2023-05-15T07:10:56.012Z,4.43
2023-05-15T07:13:22.675Z,4.63
2023-05-15T07:15:49.291Z,4.93
2023-05-15T07:18:15.904Z,4.72
2023-05-15T07:20:42.584Z,4.70
2023-05-15T07:23:09.122Z,5.28
2023-05-15T07:25:35.623Z,4.35
2023-05-15T07:28:04.612Z,4.32
2023-05-15T07:30:31.133Z,4.78
2023-05-15T07:32:57.781Z,4.68
2023-05-15T07:35:25.166Z,4.13
2023-05-15T07:37:52.023Z,4.53
2023-05-15T07:40:18.597Z,4.00
2023-05-15T07:42:45.672Z,4.13
2023-05-15T07:45:12.296Z,4.07
2023-05-15T07:47:38.968Z,4.40
2023-05-15T07:50:06.204Z,4.15
2023-05-15T07:52:32.981Z,3.90
2023-05-15T07:54:59.565Z,4.30
2023-05-15T07:57:26.504Z,4.13
2023-05-15T07:59:53.119Z,4.03
2023-05-15T08:02:19.753Z,3.80
2023-05-15T08:04:46.454Z,3.97
2023-05-15T08:07:14.356Z,3.95
2023-05-15T08:09:41.446Z,3.65
2023-05-15T08:12:21.453Z,3.47
2023-05-15T08:14:52.630Z,3.80
2023-05-15T08:17:19.560Z,3.65
2023-05-15T08:19:46.713Z,3.65
2023-05-15T08:22:16.072Z,3.92
2023-05-15T08:24:42.744Z,3.95
2023-05-15T08:27:09.673Z,3.72
2023-05-15T08:29:39.351Z,3.42
2023-05-15T08:32:07.367Z,3.63
2023-05-15T08:34:33.904Z,3.50
2023-05-15T08:37:00.494Z,3.90
2023-05-15T08:39:27.097Z,3.92
2023-05-15T08:42:00.653Z,3.67
2023-05-15T08:44:28.168Z,3.60
2023-05-15T08:46:55.743Z,4.03
2023-05-15T08:49:42.211Z,3.63
2023-05-15T08:52:09.470Z,3.50
2023-05-15T08:54:36.533Z,4.00
2023-05-15T08:57:03.858Z,3.35
2023-05-15T08:59:30.922Z,3.30
2023-05-15T09:01:57.883Z,3.63
2023-05-15T09:04:25.041Z,3.20
2023-05-15T09:06:52.881Z,3.40
2023-05-15T09:09:20.641Z,3.35
2023-05-15T09:11:48.845Z,3.58
2023-05-15T09:14:15.368Z,3.25
2023-05-15T09:16:42.117Z,3.35
2023-05-15T09:19:09.380Z,3.40
2023-05-15T09:21:36.188Z,3.60
2023-05-15T09:24:23.680Z,3.20
2023-05-15T09:27:06.367Z,3.95
2023-05-15T09:29:35.957Z,3.45
2023-05-15T09:32:08.008Z,3.75
2023-05-15T09:34:37.204Z,3.70
2023-05-15T09:37:06.714Z,4.18
2023-05-15T09:39:34.528Z,4.22
2023-05-15T09:42:08.686Z,3.45
2023-05-15T09:44:35.591Z,4.18
2023-05-15T09:47:05.577Z,3.50
2023-05-15T09:49:33.464Z,3.50
2023-05-15T09:52:00.442Z,3.25
2023-05-15T09:54:27.675Z,6.13
2023-05-15T09:56:54.281Z,9.60
2023-05-15T09:59:24.530Z,4.38
2023-05-15T10:01:52.844Z,3.33
2023-05-15T10:04:19.565Z,3.47
2023-05-15T10:06:47.586Z,3.45
2023-05-15T10:09:15.256Z,3.55
2023-05-15T10:11:43.831Z,3.80
2023-05-15T10:14:14.771Z,3.13
2023-05-15T10:16:41.712Z,3.47
2023-05-15T10:19:12.757Z,3.10
2023-05-15T10:21:41.679Z,3.30
2023-05-15T10:24:08.969Z,3.10
2023-05-15T10:26:40.767Z,4.18
2023-05-15T10:29:11.150Z,3.70
2023-05-15T10:31:37.945Z,3.53
2023-05-15T10:34:05.549Z,6.05
2023-05-15T10:36:33.446Z,3.53
2023-05-15T10:39:01.482Z,3.05
2023-05-15T10:41:33.389Z,3.55
2023-05-15T10:44:01.906Z,3.60
2023-05-15T10:46:30.856Z,3.90
2023-05-15T10:48:58.908Z,3.05
2023-05-15T10:51:28.415Z,3.17
2023-05-15T10:53:56.846Z,3.05
2023-05-15T10:56:29.544Z,4.30
2023-05-15T10:58:56.388Z,4.43
2023-05-15T11:01:42.673Z,3.15
2023-05-15T11:04:17.605Z,3.03
2023-05-15T11:06:46.283Z,3.22
2023-05-15T11:09:22.224Z,3.50
2023-05-15T11:11:51.629Z,3.47
2023-05-15T11:14:24.085Z,3.47
2023-05-15T11:16:53.743Z,3.40
2023-05-15T11:19:29.319Z,3.05
2023-05-15T11:22:08.110Z,3.58
2023-05-15T11:24:58.261Z,3.50
2023-05-15T11:27:27.220Z,3.60
2023-05-15T11:30:22.241Z,3.35
2023-05-15T11:33:10.500Z,3.33
2023-05-15T11:35:42.378Z,3.05
2023-05-15T11:38:16.449Z,3.33
2023-05-15T11:40:58.565Z,4.05
2023-05-15T11:43:27.653Z,3.10
2023-05-15T11:46:00.003Z,3.08
2023-05-15T11:48:35.692Z,3.40
2023-05-15T11:51:03.057Z,3.90
2023-05-15T11:53:30.712Z,3.70
2023-05-15T11:55:57.304Z,3.45
2023-05-15T11:58:26.064Z,3.78
2023-05-15T12:00:53.908Z,4.00
2023-05-15T12:03:26.069Z,3.28
2023-05-15T12:05:59.749Z,3.78
2023-05-15T12:08:34.760Z,3.33
2023-05-15T12:11:02.212Z,3.70
2023-05-15T12:13:30.644Z,3.53
2023-05-15T12:15:57.652Z,3.67
2023-05-15T12:18:24.445Z,3.97
2023-05-15T12:20:54.746Z,3.28
2023-05-15T12:23:23.560Z,3.15
2023-05-15T12:25:56.721Z,3.20
2023-05-15T12:30:51.165Z,3.45
2023-05-15T12:33:18.236Z,3.50
2023-05-15T12:35:52.192Z,3.92
2023-05-15T12:38:18.747Z,3.47
2023-05-15T12:40:46.713Z,3.13
2023-05-15T12:43:14.510Z,3.00
2023-05-15T12:45:42.186Z,4.70
2023-05-15T12:48:15.140Z,3.55
2023-05-15T12:50:45.348Z,2.75
2023-05-15T12:53:16.972Z,2.72
2023-05-15T12:55:47.172Z,2.95
2023-05-15T12:58:15.778Z,2.83
2023-05-15T13:00:43.394Z,2.80
2023-05-15T13:03:11.192Z,2.70
2023-05-15T13:05:38.742Z,3.00
2023-05-15T13:08:09.881Z,2.88
2023-05-15T13:10:38.807Z,2.95
2023-05-15T13:13:05.493Z,2.92
2023-05-15T13:15:37.781Z,2.88
2023-05-15T13:18:05.700Z,2.90
2023-05-15T13:20:34.405Z,2.70
2023-05-15T13:23:04.670Z,3.35
2023-05-15T13:25:32.315Z,2.90
2023-05-15T13:28:01.314Z,3.13
2023-05-15T13:30:28.685Z,3.35
2023-05-15T13:32:56.049Z,3.33
2023-05-15T13:35:23.163Z,3.72
2023-05-15T13:37:50.398Z,3.10
2023-05-15T13:40:17.153Z,3.60
2023-05-15T13:42:44.371Z,3.63
2023-05-15T13:45:16.421Z,4.32
2023-05-15T13:47:44.018Z,3.50
2023-05-15T13:50:15.391Z,3.20
2023-05-15T13:52:44.457Z,4.07
2023-05-15T13:55:11.819Z,3.65
2023-05-15T13:57:39.884Z,3.85
2023-05-15T14:00:07.934Z,4.00
2023-05-15T14:02:35.025Z,3.90
2023-05-15T14:05:01.628Z,3.83
2023-05-15T14:07:28.250Z,3.75
2023-05-15T14:09:54.898Z,3.60
2023-05-15T14:12:22.178Z,3.30
2023-05-15T14:14:48.919Z,4.22
2023-05-15T14:17:16.904Z,3.78
2023-05-15T14:19:43.576Z,3.90
2023-05-15T14:22:10.525Z,3.35
2023-05-15T14:24:37.291Z,6.03
2023-05-15T14:27:04.159Z,7.13
2023-05-15T14:29:30.758Z,3.67
2023-05-15T14:31:57.394Z,4.10
2023-05-15T14:34:24.071Z,3.75
2023-05-15T14:36:51.116Z,3.92
2023-05-15T14:39:18.526Z,3.53
2023-05-15T14:41:45.854Z,3.83
2023-05-15T14:44:12.808Z,3.85
2023-05-15T14:46:42.605Z,3.78
2023-05-15T14:49:09.539Z,4.22
2023-05-15T14:51:36.108Z,3.80
2023-05-15T14:54:05.130Z,3.60
2023-05-15T14:56:32.028Z,3.83
2023-05-15T14:58:58.559Z,4.53
2023-05-15T15:01:25.136Z,3.80
2023-05-15T15:03:51.876Z,3.45
2023-05-15T15:06:18.625Z,3.45
2023-05-15T15:08:46.416Z,3.85
2023-05-15T15:11:13.104Z,4.40
2023-05-15T15:13:39.647Z,3.40
2023-05-15T15:16:08.280Z,5.65
2023-05-15T15:18:35.067Z,3.92
2023-05-15T15:21:01.814Z,3.83
2023-05-15T15:23:28.415Z,3.60
2023-05-15T15:25:55.012Z,3.70
2023-05-15T15:28:21.590Z,3.92
2023-05-15T15:30:48.151Z,3.92
2023-05-15T15:33:14.733Z,4.10
2023-05-15T15:35:41.476Z,4.00
2023-05-15T15:38:10.098Z,4.13
2023-05-15T15:40:36.660Z,3.72
2023-05-15T15:43:03.251Z,4.18
2023-05-15T15:45:29.810Z,4.50
2023-05-15T15:47:56.511Z,4.70
2023-05-15T15:50:23.077Z,5.00
2023-05-15T15:52:49.911Z,4.47
2023-05-15T15:55:16.522Z,3.83
2023-05-15T15:57:43.267Z,3.65
2023-05-15T16:00:10.395Z,4.10
2023-05-15T16:02:37.226Z,3.80
2023-05-15T16:05:03.956Z,3.45
2023-05-15T16:07:30.833Z,3.13
2023-05-15T16:10:10.531Z,3.40
2023-05-15T16:12:41.124Z,3.50
2023-05-15T16:15:21.757Z,3.05
2023-05-15T16:17:54.994Z,3.15
2023-05-15T16:20:22.354Z,4.13
2023-05-15T16:22:49.130Z,3.00
2023-05-15T16:25:15.842Z,4.15
2023-05-15T16:27:42.352Z,3.15
2023-05-15T16:30:10.920Z,3.40
2023-05-15T16:32:37.626Z,3.20
2023-05-15T16:35:14.186Z,5.00
2023-05-15T16:37:40.781Z,3.03
2023-05-15T16:40:08.506Z,4.47
2023-05-15T16:42:36.582Z,3.40
2023-05-15T16:45:05.595Z,3.05
2023-05-15T16:47:32.182Z,3.45
2023-05-15T16:49:58.856Z,3.05
2023-05-15T16:52:25.770Z,3.20
2023-05-15T16:54:52.333Z,3.00
2023-05-15T16:57:19.039Z,3.22
2023-05-15T16:59:45.615Z,3.08
2023-05-15T17:02:12.740Z,2.97
2023-05-15T17:04:39.443Z,3.22
2023-05-15T17:07:06.467Z,3.92
2023-05-15T17:09:32.987Z,3.28
2023-05-15T17:11:59.816Z,3.72
2023-05-15T17:14:26.599Z,3.72
2023-05-15T17:16:53.192Z,3.72
2023-05-15T17:19:19.812Z,3.58
2023-05-15T17:21:46.455Z,3.60
2023-05-15T17:24:14.994Z,3.55
2023-05-15T17:26:43.709Z,3.78
2023-05-15T17:29:11.064Z,4.15
2023-05-15T17:31:39.108Z,3.70
2023-05-15T17:34:05.806Z,3.42
2023-05-15T17:36:33.714Z,3.08
2023-05-15T17:39:00.708Z,4.18
2023-05-15T17:41:27.278Z,3.53
2023-05-15T17:43:53.828Z,4.00
2023-05-15T17:46:20.825Z,3.47
2023-05-15T17:48:47.396Z,3.08
2023-05-15T17:51:14.327Z,3.50
2023-05-15T17:53:40.934Z,3.47
2023-05-15T17:56:07.840Z,3.70
2023-05-15T17:58:34.413Z,3.50
2023-05-15T18:01:01.533Z,3.75
2023-05-15T18:03:28.979Z,4.28
2023-05-15T18:05:56.113Z,4.50
2023-05-15T18:08:22.606Z,3.80
2023-05-15T18:10:49.201Z,3.65
2023-05-15T18:13:16.314Z,3.40
2023-05-15T18:15:43.100Z,3.97
2023-05-15T18:18:09.676Z,3.58
2023-05-15T18:20:36.387Z,3.80
2023-05-15T18:23:02.962Z,3.80
2023-05-15T18:25:29.655Z,3.67
2023-05-15T18:27:56.502Z,3.80
2023-05-15T18:30:23.601Z,3.40
2023-05-15T18:32:50.243Z,3.88
2023-05-15T18:35:17.166Z,3.42
2023-05-15T18:37:43.681Z,3.60
2023-05-15T18:40:10.616Z,3.40
2023-05-15T18:42:37.112Z,3.50
2023-05-15T18:45:03.920Z,3.45
2023-05-15T18:47:30.623Z,3.80
2023-05-15T18:49:57.284Z,3.35
2023-05-15T18:52:23.895Z,3.40
2023-05-15T18:54:52.210Z,3.75
2023-05-15T18:57:19.023Z,3.35
2023-05-15T18:59:45.709Z,3.40
2023-05-15T19:02:12.659Z,4.55
2023-05-15T19:04:39.279Z,4.60
2023-05-15T19:07:06.450Z,3.40
2023-05-15T19:09:33.089Z,3.75
2023-05-15T19:12:04.062Z,4.00
2023-05-15T19:14:30.725Z,4.13
2023-05-15T19:16:57.308Z,3.40
2023-05-15T19:19:24.262Z,2.97
2023-05-15T19:21:52.088Z,3.05
2023-05-15T19:24:20.140Z,3.10
2023-05-15T19:26:46.768Z,3.15
2023-05-15T19:29:13.308Z,2.95
2023-05-15T19:31:39.927Z,2.95
2023-05-15T19:34:06.525Z,3.30
2023-05-15T19:36:33.318Z,3.40
2023-05-15T19:38:59.907Z,2.75
2023-05-15T19:41:26.492Z,3.20
2023-05-15T19:43:53.093Z,3.40
2023-05-15T19:46:20.081Z,3.25
2023-05-15T19:48:46.764Z,3.63
2023-05-15T19:51:13.336Z,3.17
2023-05-15T19:53:39.893Z,3.42
2023-05-15T19:56:06.720Z,3.33
2023-05-15T19:58:33.410Z,3.75
2023-05-15T20:01:00.105Z,3.58
2023-05-15T20:03:32.676Z,3.38
2023-05-15T20:06:01.392Z,3.25
2023-05-15T20:08:28.652Z,3.35
2023-05-15T20:10:55.374Z,3.25
2023-05-15T20:13:23.935Z,3.80
2023-05-15T20:15:58.197Z,4.00
2023-05-15T20:18:25.829Z,3.33
2023-05-15T20:20:55.321Z,4.45
2023-05-15T20:23:22.782Z,3.90
2023-05-15T20:25:50.749Z,3.72
2023-05-15T20:28:17.945Z,3.63
2023-05-15T20:30:47.379Z,3.88
2023-05-15T20:33:14.382Z,3.85
2023-05-15T20:35:42.996Z,3.80
2023-05-15T20:38:10.515Z,3.45
2023-05-15T20:40:37.789Z,4.38
2023-05-15T20:43:04.927Z,3.47
2023-05-15T20:45:34.412Z,3.92
2023-05-15T20:48:01.282Z,3.92
2023-05-15T20:50:28.421Z,4.15
2023-05-15T20:52:55.758Z,3.83
2023-05-15T20:55:22.386Z,4.25
2023-05-15T20:57:50.013Z,4.18
2023-05-15T21:00:18.053Z,5.60
2023-05-15T21:02:46.626Z,5.75
2023-05-15T21:05:13.666Z,5.53
2023-05-15T21:07:40.468Z,4.72
2023-05-15T21:10:07.782Z,4.65
2023-05-15T21:12:34.973Z,4.60
2023-05-15T21:15:02.404Z,4.28
2023-05-15T21:17:29.010Z,3.78
2023-05-15T21:19:57.638Z,3.60
2023-05-15T21:22:24.753Z,3.70
2023-05-15T21:24:51.396Z,3.42
2023-05-15T21:27:17.929Z,3.45
2023-05-15T21:29:44.465Z,3.83
2023-05-15T21:32:11.041Z,3.53
2023-05-15T21:34:39.077Z,4.22
2023-05-15T21:37:05.765Z,3.50
2023-05-15T21:39:33.032Z,3.70
2023-05-15T21:41:59.576Z,3.85
2023-05-15T21:44:26.174Z,3.45
2023-05-15T21:46:52.824Z,3.97
2023-05-15T21:49:19.529Z,3.60
2023-05-15T21:51:46.602Z,3.80
2023-05-15T21:54:13.492Z,3.97
2023-05-15T21:56:40.147Z,4.47
2023-05-15T21:59:06.736Z,4.40
2023-05-15T22:01:33.499Z,4.22
2023-05-15T22:04:00.844Z,4.07
2023-05-15T22:06:27.432Z,4.25
2023-05-15T22:08:54.058Z,3.90
2023-05-15T22:11:20.791Z,4.75
2023-05-15T22:13:47.322Z,4.25
2023-05-15T22:16:15.057Z,4.28
2023-05-15T22:18:45.732Z,4.25
2023-05-15T22:21:12.302Z,4.13
2023-05-15T22:23:39.066Z,4.40
2023-05-15T22:26:05.730Z,4.43
2023-05-15T22:28:32.389Z,4.80
2023-05-15T22:30:58.905Z,4.70
2023-05-15T22:33:25.633Z,4.43
2023-05-15T22:35:53.213Z,4.60
2023-05-15T22:38:20.605Z,4.47
2023-05-15T22:40:54.047Z,4.70
2023-05-15T22:43:22.131Z,4.70
2023-05-15T22:45:48.823Z,4.68
2023-05-15T22:48:15.700Z,5.00
2023-05-15T22:50:44.251Z,4.10
2023-05-15T22:53:10.855Z,4.55
2023-05-15T22:55:37.426Z,5.10
2023-05-15T22:58:04.131Z,5.13
2023-05-15T23:00:31.062Z,5.15
2023-05-15T23:02:58.024Z,5.00
2023-05-15T23:05:25.333Z,5.13
2023-05-15T23:07:52.783Z,5.10
2023-05-15T23:10:19.418Z,4.88
2023-05-15T23:12:48.723Z,4.88
2023-05-15T23:15:15.250Z,5.93
2023-05-15T23:17:41.869Z,4.55
2023-05-15T23:20:10.571Z,5.20
2023-05-15T23:22:37.215Z,5.30
2023-05-15T23:25:03.986Z,5.03
2023-05-15T23:27:30.490Z,5.15
2023-05-15T23:29:57.037Z,5.68
2023-05-15T23:32:23.683Z,5.32
2023-05-15T23:34:51.968Z,5.80
2023-05-15T23:37:18.902Z,6.43
2023-05-15T23:39:45.583Z,6.57
2023-05-15T23:42:12.495Z,7.18
2023-05-15T23:44:39.326Z,6.57
2023-05-15T23:47:06.660Z,8.13
2023-05-15T23:49:33.718Z,7.00
2023-05-15T23:52:02.190Z,6.93
2023-05-15T23:54:28.823Z,7.40
2023-05-15T23:56:55.722Z,7.55
2023-05-15T23:59:22.302Z,7.88
